createdAt,value
2023-03-06T00:01:57.609Z,100235.38
2023-03-06T00:04:23.984Z,100231.50
2023-03-06T00:06:50.329Z,100229.44
2023-03-06T00:09:16.704Z,100227.09
2023-03-06T00:11:43.025Z,100226.91
2023-03-06T00:14:09.368Z,100224.34
2023-03-06T00:16:35.812Z,100222.91
2023-03-06T00:19:02.190Z,100214.69
2023-03-06T00:21:28.538Z,100213.06
2023-03-06T00:23:54.930Z,100212.91
2023-03-06T00:26:21.325Z,100206.34
2023-03-06T00:28:47.765Z,100202.03
2023-03-06T00:31:16.455Z,100207.38
2023-03-06T00:33:43.502Z,100201.06
2023-03-06T00:36:10.163Z,100189.50
2023-03-06T00:38:37.200Z,100194.66
2023-03-06T00:41:03.560Z,100189.91
2023-03-06T00:43:29.937Z,100191.97
2023-03-06T00:45:56.372Z,100188.78
2023-03-06T00:48:22.759Z,100183.50
2023-03-06T00:50:51.585Z,100183.41
2023-03-06T00:53:17.919Z,100176.72
2023-03-06T00:55:44.432Z,100167.66
2023-03-06T00:58:10.899Z,100168.31
2023-03-06T01:00:37.346Z,100173.72
2023-03-06T01:03:03.670Z,100166.78
2023-03-06T01:05:30.041Z,100168.44
2023-03-06T01:07:56.451Z,100170.81
2023-03-06T01:10:22.802Z,100158.34
2023-03-06T01:12:49.185Z,100157.56
2023-03-06T01:15:15.578Z,100156.56
2023-03-06T01:17:41.982Z,100155.06
2023-03-06T01:20:09.042Z,100151.34
2023-03-06T01:22:35.388Z,100150.50
2023-03-06T01:25:01.722Z,100152.66
2023-03-06T01:27:28.153Z,100145.03
2023-03-06T01:29:54.507Z,100140.78
2023-03-06T01:32:21.607Z,100138.72
2023-03-06T01:34:48.061Z,100136.38
2023-03-06T01:37:14.419Z,100135.34
2023-03-06T01:39:40.793Z,100133.66
2023-03-06T01:42:07.189Z,100124.41
2023-03-06T01:44:33.528Z,100121.25
2023-03-06T01:47:02.279Z,100118.09
2023-03-06T01:49:29.402Z,100121.38
2023-03-06T01:51:55.772Z,100115.75
2023-03-06T01:54:22.174Z,100120.97
2023-03-06T01:56:48.581Z,100120.56
2023-03-06T01:59:15.005Z,100108.53
2023-03-06T02:01:41.393Z,100113.94
2023-03-06T02:04:07.911Z,100106.72
2023-03-06T02:06:34.295Z,100105.44
2023-03-06T02:09:02.719Z,100107.44
2023-03-06T02:11:29.083Z,100113.50
2023-03-06T02:13:55.551Z,100106.09
2023-03-06T02:16:22.013Z,100102.06
2023-03-06T02:18:48.352Z,100102.81
2023-03-06T02:21:14.739Z,100093.97
2023-03-06T02:23:41.218Z,100104.16
2023-03-06T02:26:08.184Z,100099.44
2023-03-06T02:28:34.679Z,100093.69
2023-03-06T02:31:01.243Z,100093.28
2023-03-06T02:33:27.689Z,100084.94
2023-03-06T02:35:56.293Z,100081.06
2023-03-06T02:38:22.661Z,100090.84
2023-03-06T02:40:49.340Z,100076.72
2023-03-06T02:43:15.729Z,100091.84
2023-03-06T02:45:44.366Z,100086.63
2023-03-06T02:48:11.937Z,100081.59
2023-03-06T02:50:38.314Z,100087.91
2023-03-06T02:53:04.681Z,100073.53
2023-03-06T02:55:31.070Z,100087.41
2023-03-06T02:57:57.633Z,100078.84
2023-03-06T03:00:24.657Z,100077.75
2023-03-06T03:02:51.037Z,100065.91
2023-03-06T03:05:17.437Z,100060.75
2023-03-06T03:07:47.545Z,100070.94
2023-03-06T03:10:14.345Z,100065.88
2023-03-06T03:12:41.243Z,100063.59
2023-03-06T03:15:07.754Z,100059.16
2023-03-06T03:17:34.256Z,100048.25
2023-03-06T03:20:00.630Z,100057.47
2023-03-06T03:22:27.214Z,100052.69
2023-03-06T03:24:53.638Z,100055.19
2023-03-06T03:27:20.818Z,100049.66
2023-03-06T03:29:47.324Z,100049.91
2023-03-06T03:32:13.802Z,100039.00
2023-03-06T03:34:41.742Z,100033.53
2023-03-06T03:37:08.138Z,100022.00
2023-03-06T03:39:34.528Z,100030.47
2023-03-06T03:42:02.781Z,100039.31
2023-03-06T03:44:29.345Z,100035.84
2023-03-06T03:46:56.284Z,100025.41
2023-03-06T03:49:23.678Z,100027.00
2023-03-06T03:51:50.508Z,100036.66
2023-03-06T03:54:18.027Z,100039.09
2023-03-06T03:56:46.964Z,100041.47
2023-03-06T03:59:19.504Z,100037.69
2023-03-06T04:01:57.175Z,100035.03
2023-03-06T04:04:24.421Z,100028.22
2023-03-06T04:06:50.931Z,100024.81
2023-03-06T04:09:18.634Z,100023.63
2023-03-06T04:11:45.324Z,100020.56
2023-03-06T04:14:11.796Z,100014.47
2023-03-06T04:16:38.882Z,100009.97
2023-03-06T04:19:06.328Z,100022.63
2023-03-06T04:21:33.454Z,100002.88
2023-03-06T04:24:00.047Z,100002.88
2023-03-06T04:26:26.436Z,100009.59
2023-03-06T04:28:52.910Z,100001.63
2023-03-06T04:31:20.414Z,100002.69
2023-03-06T04:33:46.851Z,99998.47
2023-03-06T04:36:13.276Z,99991.34
2023-03-06T04:38:39.704Z,99993.28
2023-03-06T04:41:06.241Z,99978.41
2023-03-06T04:43:32.764Z,99985.59
2023-03-06T04:45:59.206Z,99983.75
2023-03-06T04:48:25.603Z,99987.91
2023-03-06T04:50:52.162Z,99984.97
2023-03-06T04:53:19.610Z,99977.13
2023-03-06T04:55:46.272Z,99980.84
2023-03-06T04:58:12.690Z,99976.44
2023-03-06T05:00:39.090Z,99980.38
2023-03-06T05:03:05.418Z,99972.34
2023-03-06T05:05:31.747Z,99974.22
2023-03-06T05:07:58.167Z,99975.88
2023-03-06T05:10:24.552Z,99974.56
2023-03-06T05:12:50.934Z,99969.09
2023-03-06T05:15:17.345Z,99970.63
2023-03-06T05:17:43.704Z,99979.53
2023-03-06T05:20:10.078Z,99979.09
2023-03-06T05:22:36.492Z,99972.00
2023-03-06T05:25:03.158Z,99976.16
2023-03-06T05:27:29.527Z,99976.34
2023-03-06T05:29:55.982Z,99982.28
2023-03-06T05:32:22.379Z,99990.63
2023-03-06T05:34:48.743Z,99987.16
2023-03-06T05:37:15.118Z,99984.97
2023-03-06T05:39:41.741Z,99974.63
2023-03-06T05:42:08.102Z,99971.88
2023-03-06T05:44:34.497Z,99975.25
2023-03-06T05:47:00.852Z,99962.53
2023-03-06T05:49:27.199Z,99958.63
2023-03-06T05:51:53.553Z,99959.19
2023-03-06T05:54:19.963Z,99961.03
2023-03-06T05:56:46.323Z,99950.56
2023-03-06T05:59:12.684Z,99958.91
2023-03-06T06:01:39.095Z,99953.47
2023-03-06T06:04:05.453Z,99953.47
2023-03-06T06:06:31.818Z,99956.09
2023-03-06T06:08:58.206Z,99958.78
2023-03-06T06:11:24.591Z,99954.22
2023-03-06T06:13:50.976Z,99960.25
2023-03-06T06:16:18.876Z,99960.13
2023-03-06T06:18:45.231Z,99964.78
2023-03-06T06:21:11.593Z,99958.25
2023-03-06T06:23:37.987Z,99951.16
2023-03-06T06:26:04.352Z,99949.97
2023-03-06T06:28:30.702Z,99956.50
2023-03-06T06:30:57.475Z,99950.16
2023-03-06T06:33:23.816Z,99955.31
2023-03-06T06:35:50.253Z,99951.78
2023-03-06T06:38:16.637Z,99943.22
2023-03-06T06:40:43.028Z,99949.44
2023-03-06T06:43:09.380Z,99946.66
2023-03-06T06:45:35.827Z,99946.47
2023-03-06T06:48:02.226Z,99953.88
2023-03-06T06:50:28.707Z,99957.03
2023-03-06T06:52:55.094Z,99955.75
2023-03-06T06:55:21.462Z,99951.72
2023-03-06T06:57:47.852Z,99947.66
2023-03-06T07:00:14.252Z,99949.56
2023-03-06T07:02:40.670Z,99949.63
2023-03-06T07:05:07.016Z,99949.13
2023-03-06T07:07:33.390Z,99947.53
2023-03-06T07:09:59.845Z,99953.28
2023-03-06T07:12:26.232Z,99948.78
2023-03-06T07:14:52.560Z,99953.53
2023-03-06T07:17:19.025Z,99946.22
2023-03-06T07:19:45.378Z,99955.13
2023-03-06T07:22:12.036Z,99955.66
2023-03-06T07:24:38.372Z,99953.91
2023-03-06T07:27:04.692Z,99957.88
2023-03-06T07:29:32.940Z,99952.91
2023-03-06T07:31:59.337Z,99951.06
2023-03-06T07:34:25.747Z,99955.84
2023-03-06T07:36:52.126Z,99964.28
2023-03-06T07:39:18.556Z,99955.84
2023-03-06T07:41:44.912Z,99944.31
2023-03-06T07:44:11.262Z,99963.44
2023-03-06T07:46:37.662Z,99954.84
2023-03-06T07:49:04.073Z,99944.53
2023-03-06T07:51:30.426Z,99950.44
2023-03-06T07:53:56.839Z,99949.19
2023-03-06T07:56:23.235Z,99949.22
2023-03-06T07:58:49.645Z,99946.28
2023-03-06T08:01:16.054Z,99944.22
2023-03-06T08:03:42.609Z,99941.59
2023-03-06T08:06:09.066Z,99945.91
2023-03-06T08:08:35.438Z,99934.53
2023-03-06T08:11:01.867Z,99941.72
2023-03-06T08:13:28.244Z,99946.97
2023-03-06T08:15:54.675Z,99941.00
2023-03-06T08:18:21.132Z,99938.91
2023-03-06T08:20:47.492Z,99946.03
2023-03-06T08:23:13.929Z,99945.91
2023-03-06T08:25:40.312Z,99936.59
2023-03-06T08:28:06.724Z,99952.38
2023-03-06T08:30:33.066Z,99943.28
2023-03-06T08:32:59.804Z,99948.00
2023-03-06T08:35:26.191Z,99947.25
2023-03-06T08:37:52.576Z,99950.56
2023-03-06T08:40:18.962Z,99946.34
2023-03-06T08:42:45.383Z,99949.22
2023-03-06T08:45:11.745Z,99946.97
2023-03-06T08:47:38.179Z,99953.56
2023-03-06T08:50:04.537Z,99960.09
2023-03-06T08:52:31.073Z,99956.25
2023-03-06T08:54:58.008Z,99962.31
2023-03-06T08:57:24.414Z,99962.13
2023-03-06T08:59:50.814Z,99949.94
2023-03-06T09:02:17.232Z,99957.59
2023-03-06T09:04:43.606Z,99949.84
2023-03-06T09:07:10.009Z,99949.94
2023-03-06T09:09:36.428Z,99954.00
2023-03-06T09:12:02.781Z,99962.63
2023-03-06T09:14:29.173Z,99943.56
2023-03-06T09:16:55.632Z,99944.50
2023-03-06T09:19:22.049Z,99945.81
2023-03-06T09:21:49.151Z,99950.09
2023-03-06T09:24:15.510Z,99955.06
2023-03-06T09:26:47.029Z,99946.66
2023-03-06T09:29:16.223Z,99948.94
2023-03-06T09:31:42.710Z,99947.50
2023-03-06T09:34:09.106Z,99955.75
2023-03-06T09:36:49.298Z,99951.53
2023-03-06T09:39:21.600Z,99948.16
2023-03-06T09:41:47.973Z,99957.00
2023-03-06T09:44:14.694Z,99945.13
2023-03-06T09:46:41.052Z,99954.09
2023-03-06T09:49:10.290Z,99950.25
2023-03-06T09:51:36.701Z,99949.59
2023-03-06T09:54:03.141Z,99954.44
2023-03-06T09:56:31.140Z,99947.50
2023-03-06T09:58:57.528Z,99952.31
2023-03-06T10:01:23.903Z,99960.78
2023-03-06T10:03:50.257Z,99944.38
2023-03-06T10:06:16.618Z,99959.28
2023-03-06T10:08:42.937Z,99959.75
2023-03-06T10:11:09.351Z,99972.34
2023-03-06T10:13:35.864Z,99952.50
2023-03-06T10:16:02.319Z,99957.69
2023-03-06T10:18:28.715Z,99959.94
2023-03-06T10:20:55.105Z,99953.00
2023-03-06T10:23:24.713Z,99951.84
2023-03-06T10:25:51.109Z,99946.88
2023-03-06T10:28:17.475Z,99950.94
2023-03-06T10:30:44.167Z,99947.00
2023-03-06T10:33:10.664Z,99940.72
2023-03-06T10:35:36.983Z,99947.56
2023-03-06T10:38:03.446Z,99946.41
2023-03-06T10:40:29.825Z,99947.13
2023-03-06T10:43:09.551Z,99952.88
2023-03-06T10:45:48.688Z,99956.34
2023-03-06T10:48:15.729Z,99953.25
2023-03-06T10:50:42.061Z,99942.41
2023-03-06T10:53:08.481Z,99943.78
2023-03-06T10:55:34.853Z,99947.63
2023-03-06T10:58:01.239Z,99941.25
2023-03-06T11:00:27.676Z,99950.75
2023-03-06T11:02:54.023Z,99950.66
2023-03-06T11:05:20.409Z,99948.84
2023-03-06T11:07:46.806Z,99952.69
2023-03-06T11:10:13.163Z,99951.44
2023-03-06T11:12:39.688Z,99947.72
2023-03-06T11:15:06.110Z,99956.78
2023-03-06T11:17:32.600Z,99960.03
2023-03-06T11:19:58.988Z,99954.13
2023-03-06T11:22:25.360Z,99966.44
2023-03-06T11:24:51.760Z,99948.84
2023-03-06T11:27:18.221Z,99960.09
2023-03-06T11:29:44.697Z,99952.78
2023-03-06T11:32:11.118Z,99953.19
2023-03-06T11:34:37.547Z,99946.47
2023-03-06T11:37:03.911Z,99938.03
2023-03-06T11:39:30.264Z,99933.69
2023-03-06T11:41:56.675Z,99937.84
2023-03-06T11:44:24.548Z,99933.44
2023-03-06T11:46:51.062Z,99932.41
2023-03-06T11:49:17.514Z,99937.41
2023-03-06T11:51:43.882Z,99932.44
2023-03-06T11:54:10.226Z,99920.63
2023-03-06T11:56:36.725Z,99919.72
2023-03-06T11:59:03.187Z,99916.94
2023-03-06T12:01:29.587Z,99905.69
2023-03-06T12:03:57.855Z,99915.88
2023-03-06T12:06:24.335Z,99911.97
2023-03-06T12:08:50.695Z,99921.88
2023-03-06T12:13:44.387Z,99920.16
2023-03-06T12:16:10.813Z,99920.00
2023-03-06T12:18:37.286Z,99914.50
2023-03-06T12:21:03.994Z,99914.81
2023-03-06T12:23:30.480Z,99902.66
2023-03-06T12:25:56.888Z,99893.72
2023-03-06T12:28:23.335Z,99886.28
2023-03-06T12:30:49.814Z,99888.84
2023-03-06T12:33:16.200Z,99888.50
2023-03-06T12:35:42.700Z,99879.22
2023-03-06T12:38:09.122Z,99885.50
2023-03-06T12:40:35.546Z,99892.19
2023-03-06T12:43:01.958Z,99885.63
2023-03-06T12:45:28.255Z,99873.00
2023-03-06T12:47:55.414Z,99859.94
2023-03-06T12:50:21.872Z,99874.50
2023-03-06T12:52:48.461Z,99869.06
2023-03-06T12:55:15.049Z,99870.09
2023-03-06T12:57:41.932Z,99875.25
2023-03-06T13:00:08.564Z,99867.63
2023-03-06T13:02:35.021Z,99869.59
2023-03-06T13:05:01.511Z,99861.00
2023-03-06T13:07:28.010Z,99857.19
2023-03-06T13:09:54.416Z,99859.75
2023-03-06T13:12:20.825Z,99862.72
2023-03-06T13:14:54.118Z,99861.03
2023-03-06T13:17:20.692Z,99869.00
2023-03-06T13:19:47.108Z,99844.16
2023-03-06T13:22:13.484Z,99848.66
2023-03-06T13:24:39.909Z,99848.03
2023-03-06T13:27:06.284Z,99852.94
2023-03-06T13:29:32.649Z,99845.72
2023-03-06T13:31:59.041Z,99836.25
2023-03-06T13:34:25.391Z,99837.34
2023-03-06T13:36:51.850Z,99820.69
2023-03-06T13:39:18.202Z,99819.31
2023-03-06T13:41:44.666Z,99833.25
2023-03-06T13:44:11.047Z,99816.97
2023-03-06T13:46:37.601Z,99832.38
2023-03-06T13:49:04.125Z,99832.97
2023-03-06T13:51:30.499Z,99832.13
2023-03-06T13:53:56.939Z,99817.66
2023-03-06T13:56:23.386Z,99822.44
2023-03-06T13:58:49.888Z,99817.28
2023-03-06T14:01:16.465Z,99818.31
2023-03-06T14:03:42.865Z,99823.94
2023-03-06T14:06:09.367Z,99815.41
2023-03-06T14:08:35.767Z,99809.50
2023-03-06T14:11:02.228Z,99804.88
2023-03-06T14:13:35.120Z,99806.94
2023-03-06T14:16:04.988Z,99811.41
2023-03-06T14:18:31.450Z,99805.03
2023-03-06T14:20:57.872Z,99805.13
2023-03-06T14:23:24.239Z,99795.00
2023-03-06T14:25:50.618Z,99793.69
2023-03-06T14:28:16.942Z,99805.00
2023-03-06T14:30:43.311Z,99795.16
2023-03-06T14:33:09.807Z,99793.78
2023-03-06T14:35:36.398Z,99791.66
2023-03-06T14:38:02.848Z,99789.59
2023-03-06T14:40:29.215Z,99790.75
2023-03-06T14:42:55.572Z,99792.91
2023-03-06T14:45:23.760Z,99790.84
2023-03-06T14:47:50.299Z,99795.16
2023-03-06T14:50:16.706Z,99787.28
2023-03-06T14:52:43.069Z,99799.06
2023-03-06T14:55:09.417Z,99790.25
2023-03-06T14:57:35.839Z,99789.47
2023-03-06T15:00:03.916Z,99778.13
2023-03-06T15:02:32.809Z,99788.22
2023-03-06T15:04:59.225Z,99777.38
2023-03-06T15:07:25.872Z,99785.44
2023-03-06T15:09:52.223Z,99780.81
2023-03-06T15:12:18.590Z,99782.59
2023-03-06T15:14:44.964Z,99774.09
2023-03-06T15:17:11.306Z,99781.03
2023-03-06T15:19:37.662Z,99766.44
2023-03-06T15:22:04.035Z,99777.06
2023-03-06T15:24:30.445Z,99767.91
2023-03-06T15:26:56.777Z,99777.19
2023-03-06T15:29:23.723Z,99770.72
2023-03-06T15:31:50.269Z,99765.97
2023-03-06T15:34:17.215Z,99766.53
2023-03-06T15:36:43.691Z,99769.19
2023-03-06T15:39:10.066Z,99769.63
2023-03-06T15:41:36.431Z,99758.34
2023-03-06T15:44:02.812Z,99749.97
2023-03-06T15:46:29.219Z,99746.75
2023-03-06T15:48:55.621Z,99761.28
2023-03-06T15:51:22.076Z,99750.72
2023-03-06T15:53:49.271Z,99752.28
2023-03-06T15:56:15.956Z,99761.50
2023-03-06T15:58:42.579Z,99763.00
2023-03-06T16:01:08.986Z,99752.38
2023-03-06T16:03:35.366Z,99756.75
2023-03-06T16:06:01.728Z,99748.06
2023-03-06T16:08:28.812Z,99744.53
2023-03-06T16:10:55.558Z,99747.91
2023-03-06T16:13:21.994Z,99744.38
2023-03-06T16:15:48.444Z,99737.59
2023-03-06T16:18:14.792Z,99734.41
2023-03-06T16:20:41.643Z,99735.72
2023-03-06T16:23:10.395Z,99744.38
2023-03-06T16:25:36.940Z,99739.75
2023-03-06T16:28:04.606Z,99745.84
2023-03-06T16:30:32.106Z,99749.63
2023-03-06T16:32:59.014Z,99748.09
2023-03-06T16:35:25.499Z,99741.56
2023-03-06T16:37:51.920Z,99738.34
2023-03-06T16:40:18.384Z,99739.56
2023-03-06T16:42:44.729Z,99739.75
2023-03-06T16:45:11.174Z,99732.75
2023-03-06T16:47:37.620Z,99729.22
2023-03-06T16:50:04.176Z,99736.03
2023-03-06T16:52:30.689Z,99724.53
2023-03-06T16:54:57.126Z,99718.38
2023-03-06T16:57:23.585Z,99729.22
2023-03-06T16:59:51.091Z,99720.97
2023-03-06T17:02:17.541Z,99734.81
2023-03-06T17:04:43.912Z,99723.41
2023-03-06T17:07:10.545Z,99718.09
2023-03-06T17:09:36.888Z,99714.97
2023-03-06T17:12:03.233Z,99717.34
2023-03-06T17:14:29.827Z,99715.91
2023-03-06T17:16:56.263Z,99709.13
2023-03-06T17:19:23.054Z,99710.19
2023-03-06T17:21:49.407Z,99718.63
2023-03-06T17:24:15.796Z,99718.06
2023-03-06T17:26:43.400Z,99722.66
2023-03-06T17:29:09.769Z,99712.44
2023-03-06T17:31:36.209Z,99712.69
2023-03-06T17:34:02.559Z,99715.47
2023-03-06T17:36:28.985Z,99715.38
2023-03-06T17:38:55.546Z,99718.50
2023-03-06T17:41:24.430Z,99707.56
2023-03-06T17:43:52.321Z,99706.25
2023-03-06T17:46:21.277Z,99703.00
2023-03-06T17:48:48.060Z,99711.31
2023-03-06T17:51:14.655Z,99704.06
2023-03-06T17:53:41.589Z,99709.91
2023-03-06T17:56:08.119Z,99705.88
2023-03-06T17:58:34.611Z,99704.50
2023-03-06T18:01:01.079Z,99704.31
2023-03-06T18:03:27.599Z,99692.97
2023-03-06T18:05:54.013Z,99692.38
2023-03-06T18:08:20.356Z,99692.13
2023-03-06T18:10:47.621Z,99695.94
2023-03-06T18:13:14.192Z,99689.31
2023-03-06T18:15:41.244Z,99697.50
2023-03-06T18:18:08.144Z,99691.13
2023-03-06T18:20:34.629Z,99692.13
2023-03-06T18:23:03.524Z,99680.06
2023-03-06T18:25:30.256Z,99680.09
2023-03-06T18:27:56.639Z,99679.09
2023-03-06T18:30:23.019Z,99671.84
2023-03-06T18:32:49.530Z,99670.00
2023-03-06T18:35:15.951Z,99664.09
2023-03-06T18:37:42.591Z,99668.75
2023-03-06T18:40:09.018Z,99665.09
2023-03-06T18:42:35.379Z,99665.84
2023-03-06T18:45:02.655Z,99663.41
2023-03-06T18:47:29.118Z,99658.97
2023-03-06T18:49:55.528Z,99652.25
2023-03-06T18:52:21.910Z,99656.72
2023-03-06T18:54:50.373Z,99663.59
2023-03-06T18:57:16.745Z,99656.81
2023-03-06T18:59:43.128Z,99656.00
2023-03-06T19:02:09.499Z,99654.69
2023-03-06T19:04:35.891Z,99635.44
2023-03-06T19:07:02.270Z,99639.28
2023-03-06T19:09:28.788Z,99635.63
2023-03-06T19:11:55.627Z,99638.25
2023-03-06T19:14:22.025Z,99635.44
2023-03-06T19:16:48.441Z,99625.09
2023-03-06T19:19:14.838Z,99617.84
2023-03-06T19:21:41.195Z,99622.13
2023-03-06T19:24:13.227Z,99617.66
2023-03-06T19:26:40.072Z,99613.19
2023-03-06T19:29:06.406Z,99623.69
2023-03-06T19:31:32.977Z,99621.53
2023-03-06T19:33:59.341Z,99612.19
2023-03-06T19:36:27.683Z,99595.13
2023-03-06T19:38:54.478Z,99615.41
2023-03-06T19:41:20.808Z,99611.03
2023-03-06T19:43:47.211Z,99601.75
2023-03-06T19:46:13.918Z,99600.69
2023-03-06T19:48:41.186Z,99589.00
2023-03-06T19:51:07.549Z,99601.25
2023-03-06T19:53:35.206Z,99596.56
2023-03-06T19:56:01.640Z,99592.34
2023-03-06T19:58:27.995Z,99593.63
2023-03-06T20:00:54.328Z,99589.84
2023-03-06T20:03:20.909Z,99578.06
2023-03-06T20:05:47.445Z,99570.41
2023-03-06T20:08:14.366Z,99576.38
2023-03-06T20:10:40.920Z,99569.00
2023-03-06T20:13:07.278Z,99560.19
2023-03-06T20:15:35.056Z,99555.56
2023-03-06T20:18:01.578Z,99537.00
2023-03-06T20:20:28.033Z,99541.44
2023-03-06T20:22:54.785Z,99540.75
2023-03-06T20:25:21.222Z,99535.75
2023-03-06T20:27:47.706Z,99539.78
2023-03-06T20:30:14.121Z,99535.25
2023-03-06T20:32:40.558Z,99540.56
2023-03-06T20:35:06.986Z,99526.66
2023-03-06T20:37:33.553Z,99528.81
2023-03-06T20:39:59.958Z,99522.09
2023-03-06T20:42:26.473Z,99525.16
2023-03-06T20:44:52.986Z,99526.78
2023-03-06T20:47:19.412Z,99521.75
2023-03-06T20:49:45.789Z,99512.63
2023-03-06T20:52:12.141Z,99502.59
2023-03-06T20:54:38.649Z,99505.44
2023-03-06T20:57:05.213Z,99506.56
2023-03-06T20:59:31.738Z,99498.91
2023-03-06T21:01:58.529Z,99503.16
2023-03-06T21:04:25.084Z,99495.34
2023-03-06T21:06:51.583Z,99488.63
2023-03-06T21:09:18.272Z,99502.22
2023-03-06T21:11:44.965Z,99491.19
2023-03-06T21:14:13.216Z,99487.09
2023-03-06T21:16:39.568Z,99496.59
2023-03-06T21:19:07.197Z,99487.59
2023-03-06T21:21:33.569Z,99462.13
2023-03-06T21:24:00.079Z,99471.38
2023-03-06T21:26:26.845Z,99475.78
2023-03-06T21:28:53.649Z,99465.97
2023-03-06T21:31:20.154Z,99469.69
2023-03-06T21:33:46.964Z,99459.34
2023-03-06T21:36:13.404Z,99465.44
2023-03-06T21:38:39.797Z,99454.22
2023-03-06T21:41:06.200Z,99451.28
2023-03-06T21:43:33.088Z,99447.59
2023-03-06T21:45:59.540Z,99447.91
2023-03-06T21:48:25.906Z,99442.88
2023-03-06T21:50:52.309Z,99446.34
2023-03-06T21:53:18.996Z,99445.09
2023-03-06T21:55:45.365Z,99444.72
2023-03-06T21:58:11.797Z,99432.59
2023-03-06T22:00:38.528Z,99424.28
2023-03-06T22:03:05.073Z,99432.03
2023-03-06T22:05:34.205Z,99421.00
2023-03-06T22:08:00.691Z,99416.13
2023-03-06T22:10:27.121Z,99409.50
2023-03-06T22:12:53.490Z,99393.13
2023-03-06T22:15:21.709Z,99395.75
2023-03-06T22:17:48.628Z,99395.53
2023-03-06T22:20:15.478Z,99387.78
2023-03-06T22:22:42.271Z,99384.13
2023-03-06T22:25:09.157Z,99377.47
2023-03-06T22:27:35.500Z,99380.56
2023-03-06T22:30:02.491Z,99381.91
2023-03-06T22:32:28.796Z,99370.22
2023-03-06T22:34:55.816Z,99363.09
2023-03-06T22:37:22.315Z,99370.75
2023-03-06T22:39:48.819Z,99369.19
2023-03-06T22:42:15.259Z,99357.03
2023-03-06T22:44:41.573Z,99351.63
2023-03-06T22:47:08.346Z,99350.00
2023-03-06T22:49:34.746Z,99347.50
2023-03-06T22:52:01.167Z,99347.22
2023-03-06T22:54:27.551Z,99340.03
2023-03-06T22:56:56.763Z,99340.28
2023-03-06T22:59:23.134Z,99334.16
2023-03-06T23:01:49.475Z,99327.03
2023-03-06T23:04:16.531Z,99328.78
2023-03-06T23:06:46.916Z,99327.69
2023-03-06T23:09:14.543Z,99329.53
2023-03-06T23:11:59.329Z,99325.25
2023-03-06T23:14:46.620Z,99323.00
2023-03-06T23:17:34.728Z,99315.41
2023-03-06T23:20:20.152Z,99313.09
2023-03-06T23:23:05.170Z,99314.06
2023-03-06T23:25:42.176Z,99311.72
2023-03-06T23:28:08.570Z,99308.28
2023-03-06T23:30:34.952Z,99314.50
2023-03-06T23:33:01.359Z,99317.09
2023-03-06T23:35:28.327Z,99312.84
2023-03-06T23:37:55.081Z,99301.38
2023-03-06T23:40:22.039Z,99299.25
2023-03-06T23:42:48.775Z,99302.00
2023-03-06T23:45:16.019Z,99308.47
2023-03-06T23:47:42.571Z,99292.63
2023-03-06T23:50:09.145Z,99280.88
2023-03-06T23:52:35.751Z,99280.38
2023-03-06T23:55:02.182Z,99303.16
2023-03-06T23:57:28.543Z,99297.59
2023-03-06T23:59:55.417Z,99296.78
